Continental Highway — H9LY — position and weather

sailwx.info

Track history (hours):
 
Tides and Currents Weather Stations Pressure Air Temp Water Temp Dewpoint Dewpoint Depression Visibility Wind Speed Wind Dir Waves Ship Positions

Continental Highway

Last reported at 2015-Jul-02 12:05 UTC. Time now 2015-Jul-04 11:47 UTC.
Position N 37°60' W 070°46'.

Length 199.9 m; beam 32.2 m.

Type: Cargo ship. MMSI: 351223000.

Date/timePositionNaut miles runAvg speedWind from/ knotsBaromVisibWave heightAir tempDewpointWater temp
2015-Jul-02 12:05N 37°60' W 070°46'1017.6
2015-Jul-02 11:32N 38°07' W 070°54'1916.8
2015-Jul-02 10:24N 38°21' W 071°11'1416.6
2015-Jul-02 09:33N 38°31' W 071°23'1717.0
2015-Jul-02 08:33N 38°44' W 071°38'1716.9
2015-Jul-02 07:33N 38°57' W 071°52'1717.0
2015-Jul-02 06:33N 39°09' W 072°07'1716.6
2015-Jul-02 05:33N 39°20' W 072°23'1716.9
2015-Jul-02 04:33N 39°31' W 072°39'1717.0
2015-Jul-02 03:33N 39°43' W 072°55'1717.1
2015-Jul-02 02:33N 39°55' W 073°11'1717.3
2015-Jul-02 01:33N 40°06' W 073°28'1716.9
2015-Jul-02 00:33N 40°20' W 073°41'1211.9
2015-Jul-01 23:34N 40°28' W 073°52'1211.7
2015-Jul-01 22:34N 40°37' W 074°03'5 5.3
2015-Jul-01 21:33N 40°40' W 074°09'2 2.0
2015-Jul-01 20:33N 40°41' W 074°08'0 0.0
2015-Jul-01 19:33N 40°41' W 074°08'0 0.0
2015-Jul-01 18:33N 40°41' W 074°08'0 0.0
2015-Jul-01 17:33N 40°41' W 074°08'0 0.0
2015-Jul-01 16:30N 40°41' W 074°08'0 0.0
2015-Jul-01 15:33N 40°41' W 074°08'0 0.0
2015-Jul-01 14:30N 40°41' W 074°08'0 0.0
2015-Jul-01 13:27N 40°41' W 074°08'0 0.0
2015-Jul-01 12:33N 40°41' W 074°08'0 0.0
2015-Jul-01 11:33N 40°41' W 074°08'0 0.0
2015-Jul-01 10:33N 40°41' W 074°08'0 0.0
2015-Jul-01 09:33N 40°41' W 074°08'0 0.0
2015-Jul-01 08:33N 40°41' W 074°08'0 0.0
2015-Jul-01 07:33N 40°41' W 074°08'0 0.0
2015-Jul-01 06:33N 40°41' W 074°08'0 0.0
2015-Jul-01 05:33N 40°41' W 074°08'0 0.0
2015-Jul-01 04:33N 40°41' W 074°08'0 0.0
2015-Jul-01 03:33N 40°41' W 074°08'0 0.0
2015-Jul-01 02:33N 40°41' W 074°08'0 0.0
2015-Jul-01 01:33N 40°41' W 074°08'0 0.0
2015-Jul-01 00:33N 40°41' W 074°08'0 0.0
2015-Jun-30 23:34N 40°41' W 074°08'3 3.4
2015-Jun-30 22:34N 40°39' W 074°05'1110.8
2015-Jun-30 21:33N 40°30' W 073°57'10 9.6
2015-Jun-30 20:33N 40°24' W 073°47'7 6.6
2015-Jun-30 19:33N 40°17' W 073°45'1413.8
2015-Jun-30 18:34N 40°04' W 073°43'1716.8
2015-Jun-30 17:34N 39°47' W 073°40'1716.7
2015-Jun-30 16:34N 39°31' W 073°43'1716.6
2015-Jun-30 15:33N 39°14' W 073°46'1716.5
2015-Jun-30 14:33N 38°58' W 073°50'1716.8
2015-Jun-30 13:34N 38°41' W 073°54'1413.5
2015-Jun-30 12:33N 38°28' W 073°56'1515.3
2015-Jun-30 11:34N 38°13' W 073°60'1717.1
2015-Jun-30 10:32N 37°56' W 074°04'1817.4
2015-Jun-30 09:29N 37°38' W 074°08'1617.3
2015-Jun-30 08:33N 37°22' W 074°11'1816.6
2015-Jun-30 07:28N 37°04' W 074°15'2116.5
2015-Jun-30 06:12N 36°43' W 074°19'  
2015-Jun-27 03:32N 26°42' W 079°24'1918.5
2015-Jun-27 02:30N 26°22' W 079°24'1818.6
2015-Jun-27 01:33N 26°05' W 079°26'1918.7
2015-Jun-27 00:33N 25°46' W 079°26'  
Track history (hours):
 
Tides and Currents Weather Stations Pressure Air Temp Water Temp Dewpoint Dewpoint Depression Visibility Wind Speed Wind Dir Waves Ship Positions

Continental Highway

Last reported at 2015-Jul-02 12:05 UTC. Time now 2015-Jul-04 11:47 UTC.
Position N 37°60' W 070°46'.

Length 199.9 m; beam 32.2 m.

Type: Cargo ship. MMSI: 351223000.

Date/timePositionNaut miles runAvg speedWind from/ knotsBaromVisibWave heightAir tempDewpointWater temp
2015-Jul-02 12:05N 37°60' W 070°46'1017.6
2015-Jul-02 11:32N 38°07' W 070°54'1916.8
2015-Jul-02 10:24N 38°21' W 071°11'1416.6
2015-Jul-02 09:33N 38°31' W 071°23'1717.0
2015-Jul-02 08:33N 38°44' W 071°38'1716.9
2015-Jul-02 07:33N 38°57' W 071°52'1717.0
2015-Jul-02 06:33N 39°09' W 072°07'1716.6
2015-Jul-02 05:33N 39°20' W 072°23'1716.9
2015-Jul-02 04:33N 39°31' W 072°39'1717.0
2015-Jul-02 03:33N 39°43' W 072°55'1717.1
2015-Jul-02 02:33N 39°55' W 073°11'1717.3
2015-Jul-02 01:33N 40°06' W 073°28'1716.9
2015-Jul-02 00:33N 40°20' W 073°41'1211.9
2015-Jul-01 23:34N 40°28' W 073°52'1211.7
2015-Jul-01 22:34N 40°37' W 074°03'5 5.3
2015-Jul-01 21:33N 40°40' W 074°09'2 2.0
2015-Jul-01 20:33N 40°41' W 074°08'0 0.0
2015-Jul-01 19:33N 40°41' W 074°08'0 0.0
2015-Jul-01 18:33N 40°41' W 074°08'0 0.0
2015-Jul-01 17:33N 40°41' W 074°08'0 0.0
2015-Jul-01 16:30N 40°41' W 074°08'0 0.0
2015-Jul-01 15:33N 40°41' W 074°08'0 0.0
2015-Jul-01 14:30N 40°41' W 074°08'0 0.0
2015-Jul-01 13:27N 40°41' W 074°08'0 0.0
2015-Jul-01 12:33N 40°41' W 074°08'0 0.0
2015-Jul-01 11:33N 40°41' W 074°08'0 0.0
2015-Jul-01 10:33N 40°41' W 074°08'0 0.0
2015-Jul-01 09:33N 40°41' W 074°08'0 0.0
2015-Jul-01 08:33N 40°41' W 074°08'0 0.0
2015-Jul-01 07:33N 40°41' W 074°08'0 0.0
2015-Jul-01 06:33N 40°41' W 074°08'0 0.0
2015-Jul-01 05:33N 40°41' W 074°08'0 0.0
2015-Jul-01 04:33N 40°41' W 074°08'0 0.0
2015-Jul-01 03:33N 40°41' W 074°08'0 0.0
2015-Jul-01 02:33N 40°41' W 074°08'0 0.0
2015-Jul-01 01:33N 40°41' W 074°08'0 0.0
2015-Jul-01 00:33N 40°41' W 074°08'0 0.0
2015-Jun-30 23:34N 40°41' W 074°08'3 3.4
2015-Jun-30 22:34N 40°39' W 074°05'1110.8
2015-Jun-30 21:33N 40°30' W 073°57'10 9.6
2015-Jun-30 20:33N 40°24' W 073°47'7 6.6
2015-Jun-30 19:33N 40°17' W 073°45'1413.8
2015-Jun-30 18:34N 40°04' W 073°43'1716.8
2015-Jun-30 17:34N 39°47' W 073°40'1716.7
2015-Jun-30 16:34N 39°31' W 073°43'1716.6
2015-Jun-30 15:33N 39°14' W 073°46'1716.5
2015-Jun-30 14:33N 38°58' W 073°50'1716.8
2015-Jun-30 13:34N 38°41' W 073°54'1413.5
2015-Jun-30 12:33N 38°28' W 073°56'1515.3
2015-Jun-30 11:34N 38°13' W 073°60'1717.1
2015-Jun-30 10:32N 37°56' W 074°04'1817.4
2015-Jun-30 09:29N 37°38' W 074°08'1617.3
2015-Jun-30 08:33N 37°22' W 074°11'1816.6
2015-Jun-30 07:28N 37°04' W 074°15'2116.5
2015-Jun-30 06:12N 36°43' W 074°19'  
2015-Jun-27 03:32N 26°42' W 079°24'1918.5
2015-Jun-27 02:30N 26°22' W 079°24'1818.6
2015-Jun-27 01:33N 26°05' W 079°26'1918.7
2015-Jun-27 00:33N 25°46' W 079°26'  

Dump ship's entire track history